MSC4446 HEGN-LBWN
Flight info
| Callsign | MSC4446 |
|---|---|
| Flight time | 3h 4m |
| Altitude | 34000 |
| Route | BOTIX1B BOTIX DCT HGD V608 NABED T55 GINDI W8 ALPID/N0456F350 DCT GESON/N0457F340 Q777 IMPIP DCT AZMEY DCT RASDA DCT MAROS/N0454F360 M855 PEDER DCT TOMBI UM855 AYT UQ23 OSDAN UQ26 BKZ/N0445F370 UW702 YASEN/N0448F360 UL619 MAKOL DCT IVGOT |
| Aircraft | A320/M-SDE3FGHIRWY/LB1 |
Departure
| Time | 2026-04-28 14:12 |
|---|---|
| Airport | Hurghada International Airport (HEGN) |
Arrival
| Time | 2026-04-28 17:17 |
|---|---|
| Airport | Varna Airport (LBWN) |
| Time | Latitude | Longitude | Altitude | Speed | Heading |
|---|---|---|---|---|---|
| 2026-04-28 13:36 | 27.17936 | 33.80609 | 54 ft | 0 kts | 75° |
| 2026-04-28 14:03 | 27.17930 | 33.80584 | 51 ft | 4 kts | 72° |
| 2026-04-28 14:03 | 27.17921 | 33.80555 | 52 ft | 4 kts | 66° |
| 2026-04-28 14:04 | 27.17908 | 33.80529 | 50 ft | 4 kts | 50° |
| 2026-04-28 14:04 | 27.17890 | 33.80513 | 50 ft | 4 kts | 357° |
| 2026-04-28 14:04 | 27.17881 | 33.80514 | 52 ft | 1 kts | 345° |
| 2026-04-28 14:04 | 27.17880 | 33.80514 | 52 ft | 0 kts | 345° |
| 2026-04-28 14:06 | 27.17881 | 33.80514 | 52 ft | 0 kts | 345° |
| 2026-04-28 14:06 | 27.17883 | 33.80508 | 54 ft | 1 kts | 289° |
| 2026-04-28 14:06 | 27.17863 | 33.80500 | 52 ft | 7 kts | 203° |
| 2026-04-28 14:07 | 27.17836 | 33.80428 | 56 ft | 12 kts | 255° |
| 2026-04-28 14:07 | 27.17813 | 33.80333 | 54 ft | 15 kts | 252° |
| 2026-04-28 14:07 | 27.17720 | 33.80311 | 54 ft | 15 kts | 166° |
| 2026-04-28 14:07 | 27.17614 | 33.80341 | 53 ft | 16 kts | 165° |
| 2026-04-28 14:08 | 27.17496 | 33.80377 | 53 ft | 19 kts | 165° |
| 2026-04-28 14:08 | 27.17362 | 33.80417 | 51 ft | 21 kts | 166° |
| 2026-04-28 14:08 | 27.17218 | 33.80457 | 50 ft | 22 kts | 165° |
| 2026-04-28 14:08 | 27.17068 | 33.80503 | 50 ft | 22 kts | 165° |
| 2026-04-28 14:09 | 27.16918 | 33.80547 | 51 ft | 23 kts | 166° |
| 2026-04-28 14:09 | 27.16758 | 33.80595 | 48 ft | 25 kts | 165° |
| 2026-04-28 14:09 | 27.16586 | 33.80646 | 48 ft | 23 kts | 165° |
| 2026-04-28 14:09 | 27.16462 | 33.80684 | 47 ft | 19 kts | 165° |
| 2026-04-28 14:10 | 27.16333 | 33.80722 | 44 ft | 14 kts | 165° |
| 2026-04-28 14:10 | 27.16234 | 33.80751 | 42 ft | 14 kts | 165° |
| 2026-04-28 14:10 | 27.16159 | 33.80755 | 40 ft | 10 kts | 217° |
| 2026-04-28 14:10 | 27.16141 | 33.80702 | 41 ft | 7 kts | 255° |
| 2026-04-28 14:11 | 27.16129 | 33.80651 | 40 ft | 6 kts | 255° |
| 2026-04-28 14:11 | 27.16132 | 33.80610 | 43 ft | 5 kts | 312° |
| 2026-04-28 14:11 | 27.16170 | 33.80596 | 43 ft | 9 kts | 346° |
| 2026-04-28 14:11 | 27.16406 | 33.80528 | 45 ft | 65 kts | 345° |
| 2026-04-28 14:12 | 27.17027 | 33.80345 | 46 ft | 117 kts | 345° |
| 2026-04-28 14:12 | 27.17937 | 33.80074 | 54 ft | 157 kts | 345° |
| 2026-04-28 14:12 | 27.19058 | 33.79742 | 405 ft | 167 kts | 343° |
| 2026-04-28 14:12 | 27.20179 | 33.79387 | 999 ft | 168 kts | 341° |
| 2026-04-28 14:13 | 27.21305 | 33.78986 | 1542 ft | 175 kts | 342° |
| 2026-04-28 14:13 | 27.22513 | 33.78551 | 1883 ft | 189 kts | 342° |
| 2026-04-28 14:13 | 27.23832 | 33.78112 | 2196 ft | 207 kts | 343° |
| 2026-04-28 14:13 | 27.25284 | 33.77642 | 2526 ft | 228 kts | 342° |
| 2026-04-28 14:14 | 27.26877 | 33.77129 | 2970 ft | 245 kts | 342° |
| 2026-04-28 14:14 | 27.28535 | 33.76596 | 3753 ft | 250 kts | 341° |
| 2026-04-28 14:14 | 27.30106 | 33.75769 | 4536 ft | 251 kts | 320° |
| 2026-04-28 14:14 | 27.31212 | 33.74257 | 5278 ft | 255 kts | 295° |
| 2026-04-28 14:15 | 27.31593 | 33.72299 | 5982 ft | 263 kts | 270° |
| 2026-04-28 14:15 | 27.31217 | 33.70247 | 6649 ft | 271 kts | 257° |
| 2026-04-28 14:15 | 27.30693 | 33.68198 | 7353 ft | 275 kts | 257° |
| 2026-04-28 14:15 | 27.30158 | 33.66128 | 8087 ft | 277 kts | 256° |
| 2026-04-28 14:16 | 27.29617 | 33.64035 | 8806 ft | 279 kts | 257° |
| 2026-04-28 14:16 | 27.29074 | 33.61925 | 9500 ft | 283 kts | 256° |
| 2026-04-28 14:16 | 27.28526 | 33.59783 | 10144 ft | 287 kts | 257° |
| 2026-04-28 14:16 | 27.27959 | 33.57543 | 10320 ft | 309 kts | 256° |
| 2026-04-28 14:17 | 27.27353 | 33.55140 | 10446 ft | 330 kts | 256° |
| 2026-04-28 14:17 | 27.26711 | 33.52596 | 10686 ft | 345 kts | 256° |
| 2026-04-28 14:17 | 27.26056 | 33.50023 | 11267 ft | 347 kts | 256° |
| 2026-04-28 14:17 | 27.25386 | 33.47403 | 11901 ft | 348 kts | 256° |
| 2026-04-28 14:18 | 27.24724 | 33.44779 | 12557 ft | 349 kts | 257° |
| 2026-04-28 14:18 | 27.24510 | 33.42066 | 13111 ft | 350 kts | 274° |
| 2026-04-28 14:18 | 27.24658 | 33.39322 | 13671 ft | 354 kts | 274° |
| 2026-04-28 14:18 | 27.24808 | 33.36541 | 14155 ft | 357 kts | 274° |
| 2026-04-28 14:19 | 27.24958 | 33.33759 | 14748 ft | 357 kts | 274° |
| 2026-04-28 14:19 | 27.25106 | 33.30952 | 15294 ft | 358 kts | 274° |
| 2026-04-28 14:19 | 27.25250 | 33.28145 | 15810 ft | 361 kts | 273° |
| 2026-04-28 14:19 | 27.25392 | 33.25347 | 16318 ft | 364 kts | 273° |
| 2026-04-28 14:20 | 27.25536 | 33.22495 | 16873 ft | 366 kts | 273° |
| 2026-04-28 14:20 | 27.25680 | 33.19633 | 17409 ft | 368 kts | 273° |
| 2026-04-28 14:20 | 27.25824 | 33.16756 | 17960 ft | 369 kts | 273° |
| 2026-04-28 14:20 | 27.25968 | 33.13871 | 18513 ft | 371 kts | 273° |
| 2026-04-28 14:21 | 27.26114 | 33.10965 | 19045 ft | 372 kts | 273° |
| 2026-04-28 14:21 | 27.26261 | 33.08051 | 19554 ft | 375 kts | 273° |
| 2026-04-28 14:21 | 27.26409 | 33.05118 | 20065 ft | 377 kts | 273° |
| 2026-04-28 14:21 | 27.26555 | 33.02171 | 20550 ft | 379 kts | 273° |
| 2026-04-28 14:22 | 27.26701 | 32.99197 | 21025 ft | 381 kts | 273° |
| 2026-04-28 14:22 | 27.26847 | 32.96212 | 21478 ft | 383 kts | 273° |
| 2026-04-28 14:22 | 27.26995 | 32.93212 | 21911 ft | 386 kts | 273° |
| 2026-04-28 14:22 | 27.27145 | 32.90188 | 22341 ft | 388 kts | 273° |
| 2026-04-28 14:23 | 27.27296 | 32.87155 | 22778 ft | 389 kts | 273° |
| 2026-04-28 14:23 | 27.27447 | 32.84103 | 23209 ft | 391 kts | 273° |
| 2026-04-28 14:23 | 27.27596 | 32.81077 | 23591 ft | 393 kts | 273° |
| 2026-04-28 14:23 | 27.27744 | 32.78003 | 23914 ft | 395 kts | 273° |
| 2026-04-28 14:24 | 27.27890 | 32.74915 | 24237 ft | 396 kts | 273° |
| 2026-04-28 14:24 | 27.28034 | 32.71814 | 24569 ft | 398 kts | 273° |
| 2026-04-28 14:24 | 27.28176 | 32.68710 | 24899 ft | 399 kts | 273° |
| 2026-04-28 14:24 | 27.28324 | 32.65575 | 25232 ft | 400 kts | 273° |
| 2026-04-28 14:25 | 27.28474 | 32.62437 | 25555 ft | 402 kts | 273° |
| 2026-04-28 14:25 | 27.28625 | 32.59289 | 25893 ft | 403 kts | 274° |
| 2026-04-28 14:25 | 27.28775 | 32.56135 | 26215 ft | 404 kts | 274° |
| 2026-04-28 14:25 | 27.28919 | 32.53020 | 26528 ft | 405 kts | 274° |
| 2026-04-28 14:26 | 27.29064 | 32.49831 | 26838 ft | 406 kts | 274° |
| 2026-04-28 14:26 | 27.29209 | 32.46654 | 27167 ft | 407 kts | 274° |
| 2026-04-28 14:26 | 27.29354 | 32.43482 | 27619 ft | 405 kts | 274° |
| 2026-04-28 14:26 | 27.29499 | 32.40314 | 28092 ft | 403 kts | 274° |
| 2026-04-28 14:27 | 27.29639 | 32.37216 | 28549 ft | 401 kts | 274° |
| 2026-04-28 14:27 | 27.29781 | 32.34084 | 29006 ft | 399 kts | 274° |
| 2026-04-28 14:27 | 27.30076 | 32.30995 | 29472 ft | 396 kts | 282° |
| 2026-04-28 14:27 | 27.30893 | 32.28041 | 29935 ft | 395 kts | 292° |
| 2026-04-28 14:28 | 27.32217 | 32.25339 | 30330 ft | 395 kts | 303° |
| 2026-04-28 14:28 | 27.33895 | 32.22876 | 30747 ft | 394 kts | 304° |
| 2026-04-28 14:28 | 27.35568 | 32.20453 | 31180 ft | 390 kts | 304° |
| 2026-04-28 14:28 | 27.37225 | 32.18043 | 31652 ft | 387 kts | 303° |
| 2026-04-28 14:29 | 27.38837 | 32.15685 | 32100 ft | 383 kts | 303° |
| 2026-04-28 14:29 | 27.40454 | 32.13317 | 32575 ft | 379 kts | 302° |
| 2026-04-28 14:29 | 27.42054 | 32.10976 | 33056 ft | 375 kts | 302° |
| 2026-04-28 14:29 | 27.43645 | 32.08646 | 33507 ft | 372 kts | 302° |
| 2026-04-28 14:30 | 27.45219 | 32.06342 | 33903 ft | 370 kts | 301° |
| 2026-04-28 14:30 | 27.46788 | 32.04044 | 33968 ft | 371 kts | 301° |
| 2026-04-28 14:30 | 27.49968 | 31.99367 | 33981 ft | 384 kts | 302° |
| 2026-04-28 14:31 | 27.53251 | 31.94551 | 33994 ft | 387 kts | 302° |
| 2026-04-28 14:31 | 27.56538 | 31.89732 | 33994 ft | 388 kts | 302° |
| 2026-04-28 14:32 | 27.59270 | 31.85724 | 33994 ft | 388 kts | 302° |
| 2026-04-28 14:32 | 27.63090 | 31.80109 | 34015 ft | 388 kts | 302° |
| 2026-04-28 14:33 | 27.65843 | 31.76059 | 34031 ft | 388 kts | 302° |
| 2026-04-28 14:33 | 27.69124 | 31.71219 | 34046 ft | 388 kts | 302° |
| 2026-04-28 14:34 | 27.74035 | 31.63977 | 34043 ft | 388 kts | 302° |
| 2026-04-28 14:35 | 27.77312 | 31.59134 | 34053 ft | 388 kts | 302° |
| 2026-04-28 14:35 | 27.80586 | 31.54277 | 34052 ft | 388 kts | 302° |
| 2026-04-28 14:36 | 27.83839 | 31.49451 | 34073 ft | 389 kts | 302° |
| 2026-04-28 14:36 | 27.87125 | 31.44589 | 34072 ft | 389 kts | 302° |
| 2026-04-28 14:37 | 27.90410 | 31.39725 | 34098 ft | 389 kts | 302° |
| 2026-04-28 14:37 | 27.93702 | 31.34821 | 34090 ft | 390 kts | 302° |
| 2026-04-28 14:38 | 27.96982 | 31.29937 | 34077 ft | 390 kts | 302° |
| 2026-04-28 14:38 | 28.00235 | 31.25084 | 34073 ft | 390 kts | 302° |
| 2026-04-28 14:39 | 28.03536 | 31.20187 | 34084 ft | 391 kts | 305° |
| 2026-04-28 14:39 | 28.05525 | 31.18040 | 34076 ft | 401 kts | 317° |
| 2026-04-28 14:39 | 28.07981 | 31.16442 | 34072 ft | 414 kts | 329° |
| 2026-04-28 14:39 | 28.10804 | 31.15552 | 34060 ft | 431 kts | 343° |
| 2026-04-28 14:40 | 28.13824 | 31.15497 | 34061 ft | 448 kts | 355° |
| 2026-04-28 14:40 | 28.20054 | 31.16199 | 34051 ft | 450 kts | 356° |
| 2026-04-28 14:41 | 28.26300 | 31.16910 | 34062 ft | 451 kts | 356° |
| 2026-04-28 14:41 | 28.32555 | 31.17613 | 34059 ft | 451 kts | 356° |
| 2026-04-28 14:42 | 28.38773 | 31.18313 | 34059 ft | 451 kts | 356° |
| 2026-04-28 14:42 | 28.45048 | 31.19016 | 34098 ft | 452 kts | 356° |
| 2026-04-28 14:43 | 28.51273 | 31.19718 | 34064 ft | 451 kts | 356° |
| 2026-04-28 14:43 | 28.57532 | 31.20429 | 34060 ft | 450 kts | 356° |
| 2026-04-28 14:44 | 28.63777 | 31.21133 | 34054 ft | 450 kts | 356° |
| 2026-04-28 14:44 | 28.70012 | 31.21831 | 34070 ft | 450 kts | 356° |
| 2026-04-28 14:45 | 28.76210 | 31.22558 | 34060 ft | 450 kts | 357° |
| 2026-04-28 14:45 | 28.82435 | 31.23321 | 34051 ft | 450 kts | 357° |
| 2026-04-28 14:46 | 28.88672 | 31.24081 | 34046 ft | 450 kts | 357° |
| 2026-04-28 14:46 | 28.94903 | 31.24834 | 34062 ft | 450 kts | 357° |
| 2026-04-28 14:47 | 29.01104 | 31.25585 | 34042 ft | 451 kts | 357° |
| 2026-04-28 14:47 | 29.07347 | 31.26344 | 34037 ft | 451 kts | 357° |
| 2026-04-28 14:48 | 29.13589 | 31.27101 | 34028 ft | 451 kts | 357° |
| 2026-04-28 14:48 | 29.19833 | 31.27865 | 34043 ft | 451 kts | 357° |
| 2026-04-28 14:49 | 29.26022 | 31.28612 | 34029 ft | 450 kts | 357° |
| 2026-04-28 14:49 | 29.32266 | 31.29376 | 34026 ft | 450 kts | 357° |
| 2026-04-28 14:50 | 29.38502 | 31.30418 | 34025 ft | 461 kts | 7° |
| 2026-04-28 14:50 | 29.41563 | 31.31661 | 34025 ft | 472 kts | 17° |
| 2026-04-28 14:50 | 29.44474 | 31.33479 | 34025 ft | 480 kts | 23° |
| 2026-04-28 14:51 | 29.50147 | 31.37431 | 34017 ft | 480 kts | 23° |
| 2026-04-28 14:51 | 29.55878 | 31.41418 | 34028 ft | 481 kts | 23° |
| 2026-04-28 14:52 | 29.61598 | 31.45404 | 34029 ft | 481 kts | 23° |
| 2026-04-28 14:52 | 29.67327 | 31.49398 | 34043 ft | 481 kts | 23° |
| 2026-04-28 14:53 | 29.73056 | 31.53391 | 34041 ft | 481 kts | 23° |
| 2026-04-28 14:53 | 29.78756 | 31.57370 | 34034 ft | 481 kts | 23° |
| 2026-04-28 14:54 | 29.84497 | 31.61384 | 34066 ft | 482 kts | 23° |
| 2026-04-28 14:54 | 29.90470 | 31.64418 | 34070 ft | 462 kts | 6° |
| 2026-04-28 14:54 | 29.93610 | 31.65099 | 34068 ft | 451 kts | 357° |
| 2026-04-28 14:55 | 29.96708 | 31.65226 | 34061 ft | 440 kts | 348° |
| 2026-04-28 14:55 | 30.02680 | 31.64302 | 34056 ft | 433 kts | 343° |
| 2026-04-28 14:56 | 30.08646 | 31.63234 | 34080 ft | 434 kts | 343° |
| 2026-04-28 14:56 | 30.14628 | 31.62165 | 34010 ft | 433 kts | 343° |
| 2026-04-28 14:57 | 30.20590 | 31.61104 | 33997 ft | 433 kts | 343° |
| 2026-04-28 14:57 | 30.26513 | 31.60036 | 34010 ft | 433 kts | 343° |
| 2026-04-28 14:58 | 30.32462 | 31.58957 | 34029 ft | 433 kts | 343° |
| 2026-04-28 14:58 | 30.38427 | 31.57878 | 34014 ft | 433 kts | 343° |
| 2026-04-28 14:59 | 30.44393 | 31.56802 | 34006 ft | 433 kts | 343° |
| 2026-04-28 14:59 | 30.50353 | 31.55730 | 34002 ft | 433 kts | 343° |
| 2026-04-28 15:00 | 30.56313 | 31.54652 | 33999 ft | 433 kts | 343° |
| 2026-04-28 15:00 | 30.62273 | 31.53567 | 34006 ft | 434 kts | 343° |
| 2026-04-28 15:01 | 30.68220 | 31.52485 | 33995 ft | 434 kts | 343° |
| 2026-04-28 15:01 | 30.74195 | 31.51399 | 33991 ft | 435 kts | 343° |
| 2026-04-28 15:02 | 30.80146 | 31.50315 | 34001 ft | 434 kts | 343° |
| 2026-04-28 15:02 | 30.86127 | 31.49230 | 34019 ft | 435 kts | 344° |
| 2026-04-28 15:03 | 30.92111 | 31.48141 | 34008 ft | 435 kts | 344° |
| 2026-04-28 15:03 | 30.98097 | 31.47043 | 34002 ft | 435 kts | 344° |
| 2026-04-28 15:04 | 31.04064 | 31.45953 | 34009 ft | 435 kts | 344° |
| 2026-04-28 15:04 | 31.10051 | 31.44850 | 34031 ft | 436 kts | 344° |
| 2026-04-28 15:05 | 31.16010 | 31.43757 | 34024 ft | 436 kts | 344° |
| 2026-04-28 15:05 | 31.22008 | 31.42658 | 34028 ft | 436 kts | 344° |
| 2026-04-28 15:06 | 31.28028 | 31.41548 | 34025 ft | 437 kts | 344° |
| 2026-04-28 15:06 | 31.34029 | 31.40432 | 34057 ft | 437 kts | 344° |
| 2026-04-28 15:07 | 31.39998 | 31.39320 | 34054 ft | 437 kts | 344° |
| 2026-04-28 15:07 | 31.46034 | 31.38202 | 34048 ft | 438 kts | 344° |
| 2026-04-28 15:08 | 31.52029 | 31.37085 | 34040 ft | 438 kts | 344° |
| 2026-04-28 15:08 | 31.58073 | 31.36042 | 34040 ft | 440 kts | 347° |
| 2026-04-28 15:09 | 31.64173 | 31.35396 | 34058 ft | 443 kts | 349° |
| 2026-04-28 15:09 | 31.70327 | 31.34881 | 34050 ft | 443 kts | 349° |
| 2026-04-28 15:10 | 31.76470 | 31.34297 | 34046 ft | 442 kts | 348° |
| 2026-04-28 15:10 | 31.82608 | 31.33648 | 34039 ft | 442 kts | 348° |
| 2026-04-28 15:11 | 31.88733 | 31.32998 | 34030 ft | 442 kts | 348° |
| 2026-04-28 15:11 | 31.94830 | 31.32353 | 34030 ft | 442 kts | 348° |
| 2026-04-28 15:12 | 32.00960 | 31.31704 | 34029 ft | 442 kts | 348° |
| 2026-04-28 15:12 | 32.07094 | 31.31049 | 34049 ft | 442 kts | 348° |
| 2026-04-28 15:13 | 32.13183 | 31.30398 | 34041 ft | 442 kts | 348° |
| 2026-04-28 15:13 | 32.19306 | 31.29744 | 34035 ft | 442 kts | 348° |
| 2026-04-28 15:14 | 32.25426 | 31.29086 | 34024 ft | 442 kts | 348° |
| 2026-04-28 15:14 | 32.31520 | 31.28428 | 34039 ft | 442 kts | 348° |
| 2026-04-28 15:15 | 32.37650 | 31.27765 | 34027 ft | 442 kts | 348° |
| 2026-04-28 15:15 | 32.43788 | 31.27100 | 34022 ft | 442 kts | 348° |
| 2026-04-28 15:16 | 32.49880 | 31.26445 | 34019 ft | 442 kts | 348° |
| 2026-04-28 15:16 | 32.56007 | 31.25685 | 34040 ft | 438 kts | 343° |
| 2026-04-28 15:17 | 32.61641 | 31.23370 | 34031 ft | 427 kts | 329° |
| 2026-04-28 15:17 | 32.66980 | 31.20237 | 34014 ft | 428 kts | 329° |
| 2026-04-28 15:18 | 32.72335 | 31.17123 | 34013 ft | 428 kts | 329° |
| 2026-04-28 15:18 | 32.77669 | 31.14012 | 34015 ft | 428 kts | 329° |
| 2026-04-28 15:19 | 32.83023 | 31.10871 | 34035 ft | 429 kts | 329° |
| 2026-04-28 15:19 | 32.88386 | 31.07722 | 34017 ft | 430 kts | 330° |
| 2026-04-28 15:20 | 32.93747 | 31.04577 | 34014 ft | 430 kts | 330° |
| 2026-04-28 15:20 | 32.99085 | 31.01433 | 34010 ft | 430 kts | 329° |
| 2026-04-28 15:21 | 33.03560 | 30.98791 | 34007 ft | 431 kts | 329° |
| 2026-04-28 15:21 | 33.09986 | 30.95523 | 34012 ft | 437 kts | 342° |
| 2026-04-28 15:22 | 33.16068 | 30.94733 | 33999 ft | 443 kts | 354° |
| 2026-04-28 15:22 | 33.21200 | 30.94515 | 33992 ft | 443 kts | 354° |
| 2026-04-28 15:23 | 33.27368 | 30.94253 | 33995 ft | 444 kts | 354° |
| 2026-04-28 15:23 | 33.33518 | 30.93981 | 34005 ft | 444 kts | 354° |
| 2026-04-28 15:24 | 33.39697 | 30.93714 | 33992 ft | 444 kts | 354° |
| 2026-04-28 15:24 | 33.45869 | 30.93456 | 34003 ft | 444 kts | 354° |
| 2026-04-28 15:25 | 33.52037 | 30.93185 | 33989 ft | 443 kts | 354° |
| 2026-04-28 15:25 | 33.58218 | 30.92907 | 34004 ft | 443 kts | 354° |
| 2026-04-28 15:26 | 33.64342 | 30.92638 | 33994 ft | 443 kts | 354° |
| 2026-04-28 15:26 | 33.70518 | 30.92369 | 33999 ft | 443 kts | 354° |
| 2026-04-28 15:27 | 33.76684 | 30.92099 | 33986 ft | 443 kts | 354° |
| 2026-04-28 15:27 | 33.82843 | 30.91825 | 33990 ft | 443 kts | 354° |
| 2026-04-28 15:28 | 33.89017 | 30.91563 | 33994 ft | 443 kts | 355° |
| 2026-04-28 15:28 | 33.95135 | 30.91300 | 33982 ft | 443 kts | 355° |
| 2026-04-28 15:29 | 34.01306 | 30.91026 | 33980 ft | 443 kts | 354° |
| 2026-04-28 15:29 | 34.07470 | 30.90741 | 33987 ft | 443 kts | 355° |
| 2026-04-28 15:30 | 34.13634 | 30.90466 | 33977 ft | 443 kts | 355° |
| 2026-04-28 15:30 | 34.19763 | 30.90195 | 33984 ft | 443 kts | 355° |
| 2026-04-28 15:31 | 34.25926 | 30.89924 | 33974 ft | 443 kts | 355° |
| 2026-04-28 15:31 | 34.32089 | 30.89654 | 33969 ft | 443 kts | 355° |
| 2026-04-28 15:32 | 34.38213 | 30.89381 | 33975 ft | 443 kts | 355° |
| 2026-04-28 15:32 | 34.44379 | 30.89109 | 33973 ft | 443 kts | 355° |
| 2026-04-28 15:33 | 34.50551 | 30.88830 | 33977 ft | 443 kts | 355° |
| 2026-04-28 15:33 | 34.56696 | 30.88558 | 33973 ft | 443 kts | 355° |
| 2026-04-28 15:34 | 34.62860 | 30.88289 | 33976 ft | 443 kts | 355° |
| 2026-04-28 15:34 | 34.68994 | 30.88063 | 33971 ft | 443 kts | 355° |
| 2026-04-28 15:35 | 34.75167 | 30.87876 | 33973 ft | 443 kts | 356° |
| 2026-04-28 15:35 | 34.84421 | 30.87591 | 33968 ft | 443 kts | 356° |
| 2026-04-28 15:36 | 34.90550 | 30.87390 | 33965 ft | 443 kts | 356° |
| 2026-04-28 15:36 | 34.96712 | 30.87188 | 33974 ft | 443 kts | 356° |
| 2026-04-28 15:37 | 35.02869 | 30.86980 | 33967 ft | 442 kts | 356° |
| 2026-04-28 15:37 | 35.09027 | 30.86767 | 33966 ft | 442 kts | 356° |
| 2026-04-28 15:38 | 35.15180 | 30.86553 | 33968 ft | 442 kts | 356° |
| 2026-04-28 15:38 | 35.21294 | 30.86337 | 33964 ft | 441 kts | 356° |
| 2026-04-28 15:39 | 35.27433 | 30.86045 | 33958 ft | 441 kts | 355° |
| 2026-04-28 15:39 | 35.33563 | 30.85744 | 33956 ft | 441 kts | 355° |
| 2026-04-28 15:40 | 35.39661 | 30.85465 | 33958 ft | 441 kts | 355° |
| 2026-04-28 15:40 | 35.45831 | 30.85172 | 33953 ft | 441 kts | 355° |
| 2026-04-28 15:41 | 35.51925 | 30.84878 | 33952 ft | 441 kts | 355° |
| 2026-04-28 15:41 | 35.58073 | 30.84602 | 33951 ft | 441 kts | 356° |
| 2026-04-28 15:42 | 35.64217 | 30.84325 | 33952 ft | 441 kts | 356° |
| 2026-04-28 15:42 | 35.70315 | 30.84034 | 33951 ft | 441 kts | 356° |
| 2026-04-28 15:43 | 35.76450 | 30.83739 | 33944 ft | 441 kts | 356° |
| 2026-04-28 15:43 | 35.82602 | 30.83445 | 33947 ft | 442 kts | 356° |
| 2026-04-28 15:44 | 35.88731 | 30.83165 | 33942 ft | 443 kts | 356° |
| 2026-04-28 15:44 | 35.94903 | 30.82878 | 33940 ft | 443 kts | 356° |
| 2026-04-28 15:45 | 36.01041 | 30.82583 | 33936 ft | 443 kts | 356° |
| 2026-04-28 15:45 | 36.07211 | 30.82306 | 33937 ft | 444 kts | 356° |
| 2026-04-28 15:46 | 36.13391 | 30.82107 | 33935 ft | 444 kts | 357° |
| 2026-04-28 15:46 | 36.19581 | 30.81928 | 33931 ft | 444 kts | 356° |
| 2026-04-28 15:47 | 36.25773 | 30.81734 | 33921 ft | 445 kts | 356° |
| 2026-04-28 15:47 | 36.31971 | 30.81523 | 33922 ft | 445 kts | 356° |
| 2026-04-28 15:48 | 36.38143 | 30.81304 | 33918 ft | 446 kts | 356° |
| 2026-04-28 15:48 | 36.44360 | 30.81089 | 33921 ft | 446 kts | 356° |
| 2026-04-28 15:49 | 36.50531 | 30.80885 | 33926 ft | 446 kts | 356° |
| 2026-04-28 15:49 | 36.56752 | 30.80674 | 33928 ft | 446 kts | 356° |
| 2026-04-28 15:50 | 36.62952 | 30.80458 | 33934 ft | 446 kts | 356° |
| 2026-04-28 15:50 | 36.69169 | 30.80242 | 33947 ft | 446 kts | 356° |
| 2026-04-28 15:51 | 36.75383 | 30.80029 | 33948 ft | 447 kts | 356° |
| 2026-04-28 15:51 | 36.81567 | 30.79812 | 33954 ft | 447 kts | 356° |
| 2026-04-28 15:52 | 36.87803 | 30.79591 | 33968 ft | 448 kts | 355° |
| 2026-04-28 15:52 | 36.94020 | 30.79705 | 33952 ft | 451 kts | 4° |
| 2026-04-28 15:53 | 37.00272 | 30.80608 | 33945 ft | 452 kts | 4° |
| 2026-04-28 15:53 | 37.06528 | 30.81484 | 33943 ft | 453 kts | 4° |
| 2026-04-28 15:54 | 37.12800 | 30.82362 | 33956 ft | 453 kts | 3° |
| 2026-04-28 15:54 | 37.19057 | 30.83249 | 33960 ft | 454 kts | 3° |
| 2026-04-28 15:55 | 37.25333 | 30.84142 | 33970 ft | 454 kts | 3° |
| 2026-04-28 15:55 | 37.31580 | 30.85025 | 33981 ft | 453 kts | 3° |
| 2026-04-28 15:56 | 37.37857 | 30.85919 | 33985 ft | 453 kts | 3° |
| 2026-04-28 15:56 | 37.44133 | 30.86815 | 33993 ft | 453 kts | 3° |
| 2026-04-28 15:57 | 37.50366 | 30.87702 | 34009 ft | 453 kts | 2° |
| 2026-04-28 15:57 | 37.56644 | 30.88592 | 34020 ft | 454 kts | 2° |
| 2026-04-28 15:58 | 37.62919 | 30.89492 | 34020 ft | 454 kts | 2° |
| 2026-04-28 15:58 | 37.69194 | 30.90402 | 34030 ft | 454 kts | 2° |
| 2026-04-28 15:59 | 37.74410 | 30.91152 | 34029 ft | 453 kts | 2° |
| 2026-04-28 15:59 | 37.81739 | 30.92195 | 34035 ft | 453 kts | 2° |
| 2026-04-28 16:00 | 37.88009 | 30.93098 | 34045 ft | 453 kts | 2° |
| 2026-04-28 16:00 | 37.94277 | 30.94006 | 34045 ft | 452 kts | 2° |
| 2026-04-28 16:01 | 38.00489 | 30.94908 | 34039 ft | 451 kts | 2° |
| 2026-04-28 16:01 | 38.06734 | 30.95812 | 34032 ft | 451 kts | 2° |
| 2026-04-28 16:02 | 38.12975 | 30.96714 | 34035 ft | 451 kts | 2° |
| 2026-04-28 16:02 | 38.19173 | 30.97617 | 34027 ft | 451 kts | 2° |
| 2026-04-28 16:03 | 38.25405 | 30.98522 | 34024 ft | 451 kts | 2° |
| 2026-04-28 16:03 | 38.31648 | 30.99437 | 34038 ft | 450 kts | 3° |
| 2026-04-28 16:04 | 38.37871 | 31.00354 | 34034 ft | 449 kts | 3° |
| 2026-04-28 16:04 | 38.43035 | 31.00993 | 34033 ft | 446 kts | 356° |
| 2026-04-28 16:05 | 38.47091 | 31.00511 | 34031 ft | 439 kts | 344° |
| 2026-04-28 16:05 | 38.50012 | 30.99424 | 34029 ft | 434 kts | 335° |
| 2026-04-28 16:05 | 38.55217 | 30.95667 | 34030 ft | 428 kts | 322° |
| 2026-04-28 16:06 | 38.60122 | 30.91321 | 34023 ft | 428 kts | 323° |
| 2026-04-28 16:06 | 38.64994 | 30.87003 | 34023 ft | 428 kts | 323° |
| 2026-04-28 16:07 | 38.69891 | 30.82651 | 34023 ft | 428 kts | 323° |
| 2026-04-28 16:08 | 38.77246 | 30.76119 | 34035 ft | 428 kts | 323° |
| 2026-04-28 16:08 | 38.82142 | 30.71756 | 34031 ft | 428 kts | 323° |
| 2026-04-28 16:09 | 38.89837 | 30.66012 | 34029 ft | 430 kts | 331° |
| 2026-04-28 16:10 | 38.97856 | 30.60805 | 34039 ft | 430 kts | 331° |
| 2026-04-28 16:10 | 39.05838 | 30.55597 | 34037 ft | 429 kts | 331° |
| 2026-04-28 16:11 | 39.16492 | 30.48624 | 34033 ft | 429 kts | 330° |
| 2026-04-28 16:12 | 39.24440 | 30.43410 | 34039 ft | 428 kts | 331° |
| 2026-04-28 16:13 | 39.31541 | 30.38743 | 34040 ft | 428 kts | 331° |
| 2026-04-28 16:14 | 39.42138 | 30.31744 | 34037 ft | 428 kts | 331° |
| 2026-04-28 16:15 | 39.52813 | 30.24850 | 34043 ft | 429 kts | 335° |
| 2026-04-28 16:15 | 39.58345 | 30.21936 | 34045 ft | 429 kts | 337° |
| 2026-04-28 16:16 | 39.66672 | 30.17695 | 34053 ft | 429 kts | 336° |
| 2026-04-28 16:17 | 39.74955 | 30.13254 | 34056 ft | 429 kts | 336° |
| 2026-04-28 16:17 | 39.80470 | 30.10271 | 34053 ft | 429 kts | 336° |
| 2026-04-28 16:18 | 39.85982 | 30.07304 | 34058 ft | 428 kts | 337° |
| 2026-04-28 16:18 | 39.91444 | 30.04371 | 34059 ft | 427 kts | 336° |
| 2026-04-28 16:19 | 39.96942 | 30.01412 | 34065 ft | 426 kts | 336° |
| 2026-04-28 16:19 | 40.02398 | 29.98462 | 34075 ft | 425 kts | 336° |
| 2026-04-28 16:20 | 40.07865 | 29.95501 | 34068 ft | 425 kts | 336° |
| 2026-04-28 16:20 | 40.13333 | 29.92535 | 34066 ft | 425 kts | 336° |
| 2026-04-28 16:21 | 40.18795 | 29.89566 | 34074 ft | 424 kts | 336° |
| 2026-04-28 16:21 | 40.24205 | 29.86625 | 34073 ft | 423 kts | 336° |
| 2026-04-28 16:22 | 40.29644 | 29.83662 | 34073 ft | 423 kts | 336° |
| 2026-04-28 16:22 | 40.35086 | 29.80696 | 34074 ft | 422 kts | 336° |
| 2026-04-28 16:23 | 40.40482 | 29.77744 | 34081 ft | 421 kts | 336° |
| 2026-04-28 16:23 | 40.45889 | 29.74778 | 34086 ft | 420 kts | 336° |
| 2026-04-28 16:24 | 40.51382 | 29.72162 | 34077 ft | 421 kts | 346° |
| 2026-04-28 16:24 | 40.57099 | 29.70452 | 34087 ft | 421 kts | 346° |
| 2026-04-28 16:25 | 40.62797 | 29.68765 | 34098 ft | 421 kts | 346° |
| 2026-04-28 16:25 | 40.68529 | 29.67062 | 34107 ft | 421 kts | 346° |
| 2026-04-28 16:26 | 40.74252 | 29.65355 | 34110 ft | 421 kts | 346° |
| 2026-04-28 16:26 | 40.79933 | 29.63655 | 34109 ft | 421 kts | 345° |
| 2026-04-28 16:27 | 40.85651 | 29.61943 | 34114 ft | 421 kts | 345° |
| 2026-04-28 16:28 | 40.94209 | 29.59374 | 33408 ft | 419 kts | 345° |
| 2026-04-28 16:28 | 40.97062 | 29.58514 | 32614 ft | 421 kts | 345° |
| 2026-04-28 16:28 | 40.99927 | 29.57649 | 31790 ft | 424 kts | 346° |
| 2026-04-28 16:28 | 41.02818 | 29.56776 | 30986 ft | 427 kts | 345° |
| 2026-04-28 16:29 | 41.08597 | 29.55026 | 30153 ft | 431 kts | 346° |
| 2026-04-28 16:30 | 41.17416 | 29.52358 | 30121 ft | 434 kts | 346° |
| 2026-04-28 16:30 | 41.23290 | 29.50481 | 30136 ft | 433 kts | 343° |
| 2026-04-28 16:31 | 41.29076 | 29.48252 | 30130 ft | 433 kts | 342° |
| 2026-04-28 16:31 | 41.34802 | 29.45966 | 30130 ft | 432 kts | 342° |
| 2026-04-28 16:32 | 41.40581 | 29.43730 | 30133 ft | 432 kts | 342° |
| 2026-04-28 16:32 | 41.49262 | 29.40450 | 30136 ft | 432 kts | 342° |
| 2026-04-28 16:33 | 41.54069 | 29.38619 | 30139 ft | 432 kts | 342° |
| 2026-04-28 16:33 | 41.60822 | 29.36030 | 30139 ft | 432 kts | 342° |
| 2026-04-28 16:34 | 41.66563 | 29.33823 | 30150 ft | 431 kts | 342° |
| 2026-04-28 16:34 | 41.72331 | 29.31605 | 30141 ft | 431 kts | 342° |
| 2026-04-28 16:35 | 41.78157 | 29.29360 | 30141 ft | 442 kts | 342° |
| 2026-04-28 16:35 | 41.84087 | 29.27071 | 30146 ft | 444 kts | 342° |
| 2026-04-28 16:36 | 41.90038 | 29.24779 | 30149 ft | 444 kts | 342° |
| 2026-04-28 16:36 | 41.95929 | 29.22504 | 30154 ft | 444 kts | 342° |
| 2026-04-28 16:37 | 42.01863 | 29.20205 | 30152 ft | 444 kts | 342° |
| 2026-04-28 16:38 | 42.10770 | 29.16742 | 30153 ft | 444 kts | 341° |
| 2026-04-28 16:38 | 42.16693 | 29.14382 | 30150 ft | 442 kts | 338° |
| 2026-04-28 16:39 | 42.22237 | 29.10976 | 30152 ft | 441 kts | 333° |
| 2026-04-28 16:39 | 42.27778 | 29.07427 | 30152 ft | 441 kts | 333° |
| 2026-04-28 16:40 | 42.33327 | 29.03876 | 30142 ft | 441 kts | 332° |
| 2026-04-28 16:40 | 42.36108 | 29.02090 | 29855 ft | 442 kts | 332° |
| 2026-04-28 16:40 | 42.38890 | 29.00297 | 29565 ft | 442 kts | 332° |
| 2026-04-28 16:40 | 42.41633 | 28.98531 | 29284 ft | 443 kts | 332° |
| 2026-04-28 16:41 | 42.44461 | 28.96706 | 29009 ft | 444 kts | 332° |
| 2026-04-28 16:41 | 42.47207 | 28.94930 | 28738 ft | 445 kts | 332° |
| 2026-04-28 16:41 | 42.50007 | 28.93118 | 28465 ft | 445 kts | 332° |
| 2026-04-28 16:41 | 42.52807 | 28.91308 | 28199 ft | 446 kts | 332° |
| 2026-04-28 16:42 | 42.55620 | 28.89493 | 27937 ft | 447 kts | 332° |
| 2026-04-28 16:42 | 42.58432 | 28.87678 | 27678 ft | 448 kts | 332° |
| 2026-04-28 16:42 | 42.61249 | 28.85857 | 27409 ft | 449 kts | 332° |
| 2026-04-28 16:42 | 42.64070 | 28.84025 | 27155 ft | 450 kts | 332° |
| 2026-04-28 16:43 | 42.66896 | 28.82189 | 26899 ft | 451 kts | 332° |
| 2026-04-28 16:43 | 42.69695 | 28.80373 | 26387 ft | 449 kts | 332° |
| 2026-04-28 16:43 | 42.72517 | 28.78542 | 25208 ft | 450 kts | 332° |
| 2026-04-28 16:43 | 42.75340 | 28.76708 | 24075 ft | 451 kts | 332° |
| 2026-04-28 16:44 | 42.78171 | 28.74862 | 22926 ft | 450 kts | 332° |
| 2026-04-28 16:44 | 42.80965 | 28.73037 | 22134 ft | 441 kts | 332° |
| 2026-04-28 16:44 | 42.83712 | 28.71241 | 21278 ft | 435 kts | 332° |
| 2026-04-28 16:44 | 42.86428 | 28.69463 | 20447 ft | 429 kts | 332° |
| 2026-04-28 16:45 | 42.89106 | 28.67706 | 19620 ft | 425 kts | 332° |
| 2026-04-28 16:45 | 42.91758 | 28.65969 | 18817 ft | 421 kts | 332° |
| 2026-04-28 16:45 | 42.94392 | 28.64246 | 17950 ft | 417 kts | 332° |
| 2026-04-28 16:45 | 42.96991 | 28.62541 | 17200 ft | 411 kts | 332° |
| 2026-04-28 16:46 | 42.99514 | 28.60883 | 17022 ft | 394 kts | 332° |
| 2026-04-28 16:46 | 43.01932 | 28.59292 | 16885 ft | 378 kts | 332° |
| 2026-04-28 16:46 | 43.04228 | 28.57783 | 16756 ft | 364 kts | 332° |
| 2026-04-28 16:46 | 43.06461 | 28.56316 | 16623 ft | 349 kts | 332° |
| 2026-04-28 16:47 | 43.08607 | 28.54904 | 16493 ft | 335 kts | 332° |
| 2026-04-28 16:47 | 43.10677 | 28.53558 | 16361 ft | 324 kts | 334° |
| 2026-04-28 16:47 | 43.12847 | 28.52893 | 16228 ft | 319 kts | 356° |
| 2026-04-28 16:47 | 43.15013 | 28.53358 | 16100 ft | 315 kts | 16° |
| 2026-04-28 16:48 | 43.16914 | 28.54804 | 15975 ft | 313 kts | 36° |
| 2026-04-28 16:48 | 43.18348 | 28.57007 | 15843 ft | 310 kts | 55° |
| 2026-04-28 16:48 | 43.19193 | 28.59722 | 15594 ft | 311 kts | 75° |
| 2026-04-28 16:48 | 43.19354 | 28.62660 | 15347 ft | 310 kts | 95° |
| 2026-04-28 16:49 | 43.18818 | 28.65511 | 15096 ft | 309 kts | 115° |
| 2026-04-28 16:49 | 43.17652 | 28.67963 | 14858 ft | 307 kts | 135° |
| 2026-04-28 16:49 | 43.16023 | 28.69747 | 14619 ft | 302 kts | 154° |
| 2026-04-28 16:49 | 43.14061 | 28.70740 | 14374 ft | 295 kts | 174° |
| 2026-04-28 16:50 | 43.12034 | 28.70892 | 14144 ft | 290 kts | 186° |
| 2026-04-28 16:50 | 43.10049 | 28.70695 | 13902 ft | 290 kts | 190° |
| 2026-04-28 16:50 | 43.08049 | 28.70371 | 13614 ft | 287 kts | 191° |
| 2026-04-28 16:50 | 43.06070 | 28.70010 | 13298 ft | 285 kts | 191° |
| 2026-04-28 16:51 | 43.04110 | 28.69651 | 13144 ft | 283 kts | 191° |
| 2026-04-28 16:51 | 43.02147 | 28.69302 | 13156 ft | 285 kts | 191° |
| 2026-04-28 16:51 | 43.00174 | 28.68964 | 13161 ft | 286 kts | 191° |
| 2026-04-28 16:51 | 42.98199 | 28.68637 | 13159 ft | 286 kts | 190° |
| 2026-04-28 16:52 | 42.96245 | 28.68319 | 13163 ft | 286 kts | 190° |
| 2026-04-28 16:52 | 42.94299 | 28.67834 | 13158 ft | 282 kts | 203° |
| 2026-04-28 16:52 | 42.92583 | 28.66623 | 13159 ft | 276 kts | 221° |
| 2026-04-28 16:52 | 42.91251 | 28.64795 | 13161 ft | 271 kts | 238° |
| 2026-04-28 16:53 | 42.90391 | 28.62538 | 13160 ft | 266 kts | 255° |
| 2026-04-28 16:53 | 42.90068 | 28.60072 | 13161 ft | 263 kts | 271° |
| 2026-04-28 16:53 | 42.90288 | 28.57609 | 13159 ft | 262 kts | 287° |
| 2026-04-28 16:53 | 42.91018 | 28.55344 | 13159 ft | 262 kts | 303° |
| 2026-04-28 16:54 | 42.92204 | 28.53462 | 13160 ft | 263 kts | 319° |
| 2026-04-28 16:54 | 42.93737 | 28.52137 | 13159 ft | 266 kts | 334° |
| 2026-04-28 16:54 | 42.95528 | 28.51467 | 13159 ft | 270 kts | 351° |
| 2026-04-28 16:54 | 42.96782 | 28.51420 | 13164 ft | 272 kts | 358° |
| 2026-04-28 16:55 | 42.99322 | 28.51690 | 13159 ft | 274 kts | 3° |
| 2026-04-28 16:55 | 43.01217 | 28.52010 | 13158 ft | 275 kts | 4° |
| 2026-04-28 16:55 | 43.03116 | 28.52355 | 13156 ft | 275 kts | 4° |
| 2026-04-28 16:55 | 43.04987 | 28.52690 | 13154 ft | 275 kts | 4° |
| 2026-04-28 16:56 | 43.06882 | 28.53007 | 13155 ft | 273 kts | 0° |
| 2026-04-28 16:56 | 43.08737 | 28.52737 | 13153 ft | 267 kts | 338° |
| 2026-04-28 16:56 | 43.10333 | 28.51516 | 13154 ft | 262 kts | 316° |
| 2026-04-28 16:56 | 43.11429 | 28.49557 | 13154 ft | 260 kts | 294° |
| 2026-04-28 16:57 | 43.11866 | 28.47164 | 13151 ft | 262 kts | 274° |
| 2026-04-28 16:57 | 43.11935 | 28.44669 | 13151 ft | 263 kts | 274° |
| 2026-04-28 16:57 | 43.12010 | 28.42165 | 13151 ft | 263 kts | 274° |
| 2026-04-28 16:57 | 43.12088 | 28.39673 | 13153 ft | 263 kts | 274° |
| 2026-04-28 16:58 | 43.12166 | 28.37171 | 13152 ft | 263 kts | 274° |
| 2026-04-28 16:58 | 43.12240 | 28.34686 | 13149 ft | 258 kts | 274° |
| 2026-04-28 16:58 | 43.12308 | 28.32299 | 13144 ft | 244 kts | 274° |
| 2026-04-28 16:58 | 43.12370 | 28.30037 | 13145 ft | 239 kts | 274° |
| 2026-04-28 16:59 | 43.12432 | 28.27772 | 13149 ft | 238 kts | 274° |
| 2026-04-28 16:59 | 43.12497 | 28.25507 | 13148 ft | 237 kts | 274° |
| 2026-04-28 16:59 | 43.12561 | 28.23251 | 13128 ft | 236 kts | 274° |
| 2026-04-28 16:59 | 43.12624 | 28.21007 | 12826 ft | 235 kts | 274° |
| 2026-04-28 17:00 | 43.12684 | 28.18802 | 12422 ft | 234 kts | 274° |
| 2026-04-28 17:00 | 43.12743 | 28.16585 | 11970 ft | 232 kts | 274° |
| 2026-04-28 17:00 | 43.12802 | 28.14378 | 11535 ft | 232 kts | 274° |
| 2026-04-28 17:00 | 43.12859 | 28.12181 | 11101 ft | 231 kts | 274° |
| 2026-04-28 17:01 | 43.12915 | 28.09981 | 10688 ft | 230 kts | 274° |
| 2026-04-28 17:01 | 43.12969 | 28.07794 | 10233 ft | 229 kts | 274° |
| 2026-04-28 17:01 | 43.13027 | 28.05618 | 9765 ft | 228 kts | 274° |
| 2026-04-28 17:01 | 43.13085 | 28.03451 | 9272 ft | 228 kts | 274° |
| 2026-04-28 17:02 | 43.13140 | 28.01311 | 8791 ft | 227 kts | 274° |
| 2026-04-28 17:02 | 43.13230 | 27.99854 | 8459 ft | 226 kts | 279° |
| 2026-04-28 17:02 | 43.13490 | 27.97024 | 7835 ft | 225 kts | 279° |
| 2026-04-28 17:02 | 43.13683 | 27.94896 | 7365 ft | 225 kts | 279° |
| 2026-04-28 17:03 | 43.14055 | 27.90757 | 6998 ft | 203 kts | 279° |
| 2026-04-28 17:03 | 43.14218 | 27.88906 | 7000 ft | 193 kts | 279° |
| 2026-04-28 17:03 | 43.14379 | 27.87090 | 7007 ft | 191 kts | 279° |
| 2026-04-28 17:04 | 43.14697 | 27.83511 | 7009 ft | 191 kts | 279° |
| 2026-04-28 17:04 | 43.14857 | 27.81711 | 7010 ft | 191 kts | 279° |
| 2026-04-28 17:05 | 43.15180 | 27.78094 | 7012 ft | 191 kts | 279° |
| 2026-04-28 17:05 | 43.15344 | 27.76283 | 7009 ft | 192 kts | 279° |
| 2026-04-28 17:05 | 43.15507 | 27.74466 | 7010 ft | 192 kts | 279° |
| 2026-04-28 17:06 | 43.15773 | 27.71454 | 6899 ft | 191 kts | 279° |
| 2026-04-28 17:06 | 43.15930 | 27.69656 | 6716 ft | 190 kts | 279° |
| 2026-04-28 17:06 | 43.16243 | 27.66068 | 6417 ft | 188 kts | 279° |
| 2026-04-28 17:07 | 43.16401 | 27.64287 | 6263 ft | 189 kts | 280° |
| 2026-04-28 17:07 | 43.16560 | 27.62495 | 6107 ft | 190 kts | 279° |
| 2026-04-28 17:07 | 43.16716 | 27.60720 | 5950 ft | 190 kts | 279° |
| 2026-04-28 17:07 | 43.16874 | 27.58920 | 5796 ft | 190 kts | 280° |
| 2026-04-28 17:08 | 43.17029 | 27.57126 | 5642 ft | 189 kts | 280° |
| 2026-04-28 17:08 | 43.17182 | 27.55351 | 5479 ft | 185 kts | 279° |
| 2026-04-28 17:08 | 43.17330 | 27.53604 | 5326 ft | 184 kts | 279° |
| 2026-04-28 17:08 | 43.17473 | 27.51853 | 5175 ft | 184 kts | 280° |
| 2026-04-28 17:09 | 43.17611 | 27.50112 | 5023 ft | 184 kts | 278° |
| 2026-04-28 17:09 | 43.17765 | 27.48344 | 4870 ft | 187 kts | 280° |
| 2026-04-28 17:09 | 43.18101 | 27.46667 | 4701 ft | 181 kts | 304° |
| 2026-04-28 17:09 | 43.19004 | 27.45490 | 4546 ft | 182 kts | 335° |
| 2026-04-28 17:10 | 43.20220 | 27.45160 | 4408 ft | 183 kts | 5° |
| 2026-04-28 17:10 | 43.21458 | 27.45629 | 4295 ft | 187 kts | 17° |
| 2026-04-28 17:10 | 43.22696 | 27.46192 | 4156 ft | 188 kts | 18° |
| 2026-04-28 17:10 | 43.23926 | 27.46805 | 4039 ft | 189 kts | 24° |
| 2026-04-28 17:11 | 43.24930 | 27.47933 | 3898 ft | 191 kts | 55° |
| 2026-04-28 17:11 | 43.25377 | 27.49630 | 3761 ft | 193 kts | 87° |
| 2026-04-28 17:11 | 43.25250 | 27.51450 | 3616 ft | 192 kts | 95° |
| 2026-04-28 17:11 | 43.25150 | 27.53269 | 3662 ft | 191 kts | 92° |
| 2026-04-28 17:12 | 43.25043 | 27.55085 | 3718 ft | 191 kts | 95° |
| 2026-04-28 17:12 | 43.24923 | 27.56889 | 3645 ft | 189 kts | 93° |
| 2026-04-28 17:12 | 43.24881 | 27.58686 | 3543 ft | 188 kts | 86° |
| 2026-04-28 17:12 | 43.24933 | 27.60470 | 3325 ft | 186 kts | 87° |
| 2026-04-28 17:13 | 43.24967 | 27.62178 | 3057 ft | 175 kts | 91° |
| 2026-04-28 17:13 | 43.24878 | 27.63784 | 2764 ft | 164 kts | 96° |
| 2026-04-28 17:13 | 43.24728 | 27.65286 | 2483 ft | 153 kts | 99° |
| 2026-04-28 17:13 | 43.24560 | 27.66663 | 2346 ft | 142 kts | 98° |
| 2026-04-28 17:14 | 43.24447 | 27.67986 | 2153 ft | 139 kts | 96° |
| 2026-04-28 17:14 | 43.24354 | 27.69306 | 1898 ft | 138 kts | 96° |
| 2026-04-28 17:14 | 43.24258 | 27.70589 | 1713 ft | 133 kts | 97° |
| 2026-04-28 17:14 | 43.24134 | 27.71861 | 1534 ft | 134 kts | 99° |
| 2026-04-28 17:15 | 43.24017 | 27.73129 | 1334 ft | 134 kts | 98° |
| 2026-04-28 17:15 | 43.23904 | 27.74383 | 1140 ft | 134 kts | 99° |
| 2026-04-28 17:15 | 43.23789 | 27.75648 | 963 ft | 134 kts | 99° |
| 2026-04-28 17:15 | 43.23682 | 27.76911 | 776 ft | 133 kts | 98° |
| 2026-04-28 17:16 | 43.23579 | 27.78163 | 653 ft | 133 kts | 98° |
| 2026-04-28 17:16 | 43.23473 | 27.79444 | 492 ft | 136 kts | 99° |
| 2026-04-28 17:16 | 43.23355 | 27.80695 | 293 ft | 131 kts | 99° |
| 2026-04-28 17:16 | 43.23250 | 27.81899 | 223 ft | 111 kts | 96° |
| 2026-04-28 17:17 | 43.23178 | 27.82719 | 222 ft | 62 kts | 97° |
| 2026-04-28 17:17 | 43.23146 | 27.83091 | 222 ft | 17 kts | 96° |
| 2026-04-28 17:17 | 43.23134 | 27.83236 | 222 ft | 16 kts | 85° |
| 2026-04-28 17:17 | 43.23214 | 27.83292 | 222 ft | 9 kts | 7° |
| 2026-04-28 17:18 | 43.23277 | 27.83303 | 222 ft | 9 kts | 7° |
| 2026-04-28 17:18 | 43.23300 | 27.83307 | 222 ft | 0 kts | 8° |
| 2026-04-28 17:18 | 43.23307 | 27.83309 | 222 ft | 2 kts | 8° |
| 2026-04-28 17:19 | 43.23332 | 27.83314 | 222 ft | 5 kts | 8° |
| 2026-04-28 17:19 | 43.23374 | 27.83316 | 224 ft | 7 kts | 347° |
| 2026-04-28 17:19 | 43.23394 | 27.83253 | 222 ft | 9 kts | 277° |
| 2026-04-28 17:19 | 43.23403 | 27.83159 | 222 ft | 11 kts | 277° |
| 2026-04-28 17:20 | 43.23413 | 27.83051 | 224 ft | 11 kts | 276° |
| 2026-04-28 17:20 | 43.23419 | 27.82976 | 222 ft | 13 kts | 276° |
| 2026-04-28 17:20 | 43.23431 | 27.82838 | 222 ft | 12 kts | 277° |
| 2026-04-28 17:20 | 43.23447 | 27.82783 | 223 ft | 4 kts | 338° |
| 2026-04-28 17:21 | 43.23479 | 27.82786 | 222 ft | 5 kts | 5° |
| 2026-04-28 17:21 | 43.23501 | 27.82789 | 222 ft | 1 kts | 6° |